createdAt,value
2019-01-09T00:00:51.039Z,0.30
2019-01-09T00:03:21.796Z,0.57
2019-01-09T00:05:50.983Z,0.43
2019-01-09T00:08:20.096Z,0.40
2019-01-09T00:10:50.997Z,0.33
2019-01-09T00:13:24.795Z,0.40
2019-01-09T00:15:55.333Z,0.30
2019-01-09T00:18:24.461Z,0.37
2019-01-09T00:20:53.713Z,0.57
2019-01-09T00:23:22.780Z,0.20
2019-01-09T00:25:52.010Z,0.50
2019-01-09T00:28:21.091Z,0.50
2019-01-09T00:30:50.276Z,0.30
2019-01-09T00:33:19.363Z,0.40
2019-01-09T00:35:52.430Z,0.33
2019-01-09T00:38:21.509Z,0.40
2019-01-09T00:40:50.787Z,0.23
2019-01-09T00:43:19.912Z,0.20
2019-01-09T00:45:49.108Z,0.57
2019-01-09T00:48:18.260Z,0.30
2019-01-09T00:50:47.559Z,0.30
2019-01-09T00:53:17.192Z,0.20
2019-01-09T00:55:46.341Z,0.20
2019-01-09T00:58:16.353Z,0.30
2019-01-09T01:00:45.609Z,0.10
2019-01-09T01:03:33.019Z,0.30
2019-01-09T01:06:14.075Z,0.20
2019-01-09T01:09:02.642Z,0.17
2019-01-09T01:12:03.788Z,0.40
2019-01-09T01:14:51.030Z,0.17
2019-01-09T01:21:07.923Z,0.13
2019-01-09T01:23:58.520Z,0.20
2019-01-09T01:26:36.982Z,0.20
2019-01-09T01:29:27.566Z,0.20
2019-01-09T01:32:21.546Z,0.70
2019-01-09T01:34:54.103Z,0.20
2019-01-09T01:37:35.893Z,0.20
2019-01-09T01:40:17.671Z,0.20
2019-01-09T01:43:10.531Z,0.20
2019-01-09T01:45:51.545Z,0.20
2019-01-09T01:48:26.740Z,0.10
2019-01-09T01:51:18.906Z,0.20
2019-01-09T01:54:02.884Z,0.27
2019-01-09T01:56:38.641Z,0.40
2019-01-09T01:59:10.753Z,0.30
2019-01-09T02:01:48.871Z,0.20
2019-01-09T02:04:33.307Z,0.20
2019-01-09T02:07:20.296Z,0.20
2019-01-09T02:10:08.808Z,0.50
2019-01-09T02:12:58.828Z,0.30
2019-01-09T02:15:33.711Z,0.23
2019-01-09T02:18:08.373Z,0.20
2019-01-09T02:20:43.158Z,0.30
2019-01-09T02:23:33.164Z,0.20
2019-01-09T02:26:14.316Z,0.30
2019-01-09T02:28:48.972Z,0.33
2019-01-09T02:31:26.233Z,0.20
2019-01-09T02:33:55.348Z,0.50
2019-01-09T02:36:24.456Z,0.30
2019-01-09T02:38:53.782Z,0.20
2019-01-09T02:41:22.864Z,0.40
2019-01-09T02:43:52.078Z,0.30
2019-01-09T02:46:21.535Z,0.30
2019-01-09T02:48:50.899Z,0.47
2019-01-09T02:51:20.946Z,0.20
2019-01-09T02:53:50.329Z,0.10
2019-01-09T02:56:20.276Z,0.20
2019-01-09T02:58:49.620Z,0.30
2019-01-09T03:01:18.794Z,0.40
2019-01-09T03:03:47.893Z,0.43
2019-01-09T03:06:22.971Z,0.43
2019-01-09T03:08:47.917Z,0.27
2019-01-09T03:11:17.024Z,0.37
2019-01-09T03:13:46.389Z,0.30
2019-01-09T03:16:15.859Z,0.20
2019-01-09T03:18:44.930Z,0.30
2019-01-09T03:21:14.109Z,0.43
2019-01-09T03:23:43.240Z,0.30
2019-01-09T03:26:13.974Z,0.43
2019-01-09T03:28:43.249Z,0.50
2019-01-09T03:31:12.488Z,0.50
2019-01-09T03:33:43.591Z,0.50
2019-01-09T03:36:12.707Z,0.47
2019-01-09T03:38:43.501Z,0.63
2019-01-09T03:41:12.728Z,0.67
2019-01-09T03:43:42.442Z,0.60
2019-01-09T03:46:11.542Z,0.53
2019-01-09T03:48:40.638Z,0.90
2019-01-09T03:51:13.425Z,0.50
2019-01-09T03:53:42.690Z,0.47
2019-01-09T03:56:12.839Z,0.50
2019-01-09T03:58:42.030Z,0.60
2019-01-09T04:01:11.136Z,0.40
2019-01-09T04:03:40.391Z,0.30
2019-01-09T04:06:09.518Z,0.63
2019-01-09T04:08:38.688Z,0.43
2019-01-09T04:11:08.025Z,0.70
2019-01-09T04:13:37.487Z,0.40
2019-01-09T04:16:06.748Z,0.60
2019-01-09T04:18:43.688Z,0.47
2019-01-09T04:21:12.809Z,0.70
2019-01-09T04:23:42.177Z,0.50
2019-01-09T04:26:11.277Z,0.50
2019-01-09T04:28:40.600Z,0.40
2019-01-09T04:31:09.682Z,0.60
2019-01-09T04:33:38.878Z,0.40
2019-01-09T04:36:08.033Z,0.40
2019-01-09T04:38:38.682Z,0.40
2019-01-09T04:41:07.795Z,0.73
2019-01-09T04:43:36.972Z,0.77
2019-01-09T04:46:06.167Z,0.50
2019-01-09T04:48:35.431Z,0.30
2019-01-09T04:51:04.760Z,0.70
2019-01-09T04:53:34.388Z,0.50
2019-01-09T04:56:04.366Z,0.60
2019-01-09T04:58:33.606Z,0.50
2019-01-09T05:01:05.027Z,0.47
2019-01-09T05:03:34.709Z,0.40
2019-01-09T05:06:04.013Z,0.40
2019-01-09T05:08:33.495Z,0.60
2019-01-09T05:11:02.737Z,0.40
2019-01-09T05:13:38.385Z,0.43
2019-01-09T05:16:07.542Z,0.60
2019-01-09T05:18:36.799Z,0.60
2019-01-09T05:21:06.105Z,0.63
2019-01-09T05:23:35.199Z,0.77
2019-01-09T05:26:04.702Z,0.67
2019-01-09T05:28:33.903Z,0.80
2019-01-09T05:31:07.641Z,0.40
2019-01-09T05:33:33.857Z,0.70
2019-01-09T05:36:07.328Z,0.67
2019-01-09T05:38:37.948Z,0.40
2019-01-09T05:41:07.116Z,0.53
2019-01-09T05:43:36.663Z,0.70
2019-01-09T05:46:06.050Z,0.70
2019-01-09T05:48:37.230Z,0.63
2019-01-09T05:51:07.023Z,0.57
2019-01-09T05:53:36.186Z,0.60
2019-01-09T05:56:08.809Z,0.60
2019-01-09T05:58:43.931Z,0.43
2019-01-09T06:01:13.479Z,0.93
2019-01-09T06:03:42.630Z,0.63
2019-01-09T06:06:11.864Z,0.60
2019-01-09T06:08:44.296Z,0.60
2019-01-09T06:11:13.566Z,0.60
2019-01-09T06:13:42.803Z,0.50
2019-01-09T06:16:16.998Z,0.63
2019-01-09T06:18:46.405Z,0.57
2019-01-09T06:21:15.588Z,0.40
2019-01-09T06:23:44.907Z,0.40
2019-01-09T06:26:15.538Z,0.70
2019-01-09T06:28:45.968Z,0.70
2019-01-09T06:31:15.161Z,0.50
2019-01-09T06:33:44.463Z,0.60
2019-01-09T06:36:14.034Z,1.00
2019-01-09T06:38:43.317Z,0.60
2019-01-09T06:41:12.765Z,0.70
2019-01-09T06:43:58.498Z,0.60
2019-01-09T06:46:27.310Z,0.60
2019-01-09T06:49:00.129Z,0.83
2019-01-09T06:51:29.341Z,0.77
2019-01-09T06:53:58.950Z,0.73
2019-01-09T06:56:32.138Z,0.67
2019-01-09T06:59:01.511Z,0.70
2019-01-09T07:01:30.954Z,0.57
2019-01-09T07:04:06.490Z,0.60
2019-01-09T07:06:35.815Z,0.53
2019-01-09T07:09:06.269Z,0.60
2019-01-09T07:11:35.484Z,0.50
2019-01-09T07:14:05.109Z,0.60
2019-01-09T07:16:34.391Z,0.60
2019-01-09T07:19:07.220Z,0.70
2019-01-09T07:21:45.233Z,0.90
2019-01-09T07:24:10.313Z,0.67
2019-01-09T07:26:40.796Z,0.57
2019-01-09T07:29:10.157Z,0.80
2019-01-09T07:31:39.526Z,0.70
2019-01-09T07:34:10.325Z,0.70
2019-01-09T07:36:39.480Z,0.63
2019-01-09T07:39:09.309Z,0.43
2019-01-09T07:41:44.814Z,0.70
2019-01-09T07:44:14.024Z,0.77
2019-01-09T07:46:43.274Z,1.00
2019-01-09T07:49:12.466Z,0.90
2019-01-09T07:51:43.385Z,0.70
2019-01-09T07:54:12.580Z,0.93
2019-01-09T07:56:41.853Z,0.80
2019-01-09T07:59:11.268Z,0.53
2019-01-09T08:01:42.362Z,1.00
2019-01-09T08:04:29.988Z,0.80
2019-01-09T08:06:57.429Z,0.80
2019-01-09T08:09:26.696Z,0.87
2019-01-09T08:11:58.592Z,0.77
2019-01-09T08:14:27.873Z,0.60
2019-01-09T08:16:57.277Z,0.73
2019-01-09T08:19:26.564Z,0.70
2019-01-09T08:21:55.853Z,0.40
2019-01-09T08:24:25.242Z,0.70
2019-01-09T08:27:00.824Z,0.90
2019-01-09T08:29:30.047Z,0.77
2019-01-09T08:32:00.989Z,0.90
2019-01-09T08:34:30.588Z,0.80
2019-01-09T08:36:59.977Z,0.60
2019-01-09T08:39:29.505Z,0.60
2019-01-09T08:41:59.184Z,0.90
2019-01-09T08:44:30.881Z,0.80
2019-01-09T08:47:00.279Z,0.90
2019-01-09T08:49:36.506Z,1.10
2019-01-09T08:52:02.798Z,1.00
2019-01-09T08:54:32.023Z,1.17
2019-01-09T08:57:01.255Z,0.80
2019-01-09T08:59:30.643Z,0.97
2019-01-09T09:02:10.834Z,1.53
2019-01-09T09:04:39.225Z,1.10
2019-01-09T09:07:09.757Z,1.10
2019-01-09T09:09:39.236Z,1.23
2019-01-09T09:12:13.456Z,0.97
2019-01-09T09:14:40.056Z,1.00
2019-01-09T09:17:09.247Z,1.03
2019-01-09T09:19:40.364Z,1.17
2019-01-09T09:22:11.256Z,1.00
2019-01-09T09:24:44.359Z,1.40
2019-01-09T09:27:16.575Z,0.80
2019-01-09T09:29:48.467Z,0.87
2019-01-09T09:32:18.832Z,1.07
2019-01-09T09:34:50.930Z,1.13
2019-01-09T09:37:20.088Z,1.10
2019-01-09T09:39:50.675Z,1.13
2019-01-09T09:42:20.047Z,0.90
2019-01-09T09:44:51.045Z,1.13
2019-01-09T09:47:20.635Z,1.00
2019-01-09T09:49:49.791Z,1.00
2019-01-09T09:52:19.873Z,0.70
2019-01-09T09:54:50.640Z,1.00
2019-01-09T09:57:24.828Z,0.70
2019-01-09T10:00:18.169Z,0.80
2019-01-09T10:02:47.840Z,1.10
2019-01-09T10:05:17.642Z,0.90
2019-01-09T10:07:51.017Z,0.80
2019-01-09T10:10:20.254Z,1.27
2019-01-09T10:13:00.155Z,1.00
2019-01-09T10:15:29.256Z,0.80
2019-01-09T10:17:58.662Z,1.13
2019-01-09T10:20:29.075Z,0.90
2019-01-09T10:23:04.244Z,0.80
2019-01-09T10:25:33.417Z,0.70
2019-01-09T10:28:02.898Z,0.70
2019-01-09T10:30:32.794Z,0.70
2019-01-09T10:33:04.209Z,0.80
2019-01-09T10:35:33.408Z,0.80
2019-01-09T10:38:04.121Z,0.60
2019-01-09T10:40:36.523Z,0.80
2019-01-09T10:43:06.964Z,0.80
2019-01-09T10:45:40.257Z,0.80
2019-01-09T10:48:09.251Z,0.70
2019-01-09T10:50:38.561Z,0.70
2019-01-09T10:53:07.797Z,0.70
2019-01-09T10:55:37.040Z,0.70
2019-01-09T10:58:11.413Z,0.80
2019-01-09T11:00:42.044Z,0.83
2019-01-09T11:03:11.157Z,0.80
2019-01-09T11:05:40.547Z,0.73
2019-01-09T11:08:10.787Z,0.57
2019-01-09T11:10:39.913Z,0.60
2019-01-09T11:13:09.201Z,0.90
2019-01-09T11:15:42.679Z,0.80
2019-01-09T11:18:13.360Z,0.73
2019-01-09T11:20:42.841Z,0.80
2019-01-09T11:23:12.244Z,0.73
2019-01-09T11:25:42.636Z,0.53
2019-01-09T11:28:12.904Z,0.50
2019-01-09T11:30:42.329Z,0.60
2019-01-09T11:33:24.647Z,0.67
2019-01-09T11:35:54.183Z,0.50
2019-01-09T11:38:23.718Z,0.60
2019-01-09T11:40:53.188Z,0.80
2019-01-09T11:43:22.776Z,0.40
2019-01-09T11:45:52.195Z,0.50
2019-01-09T11:48:21.629Z,0.40
2019-01-09T11:50:53.081Z,0.57
2019-01-09T11:53:22.283Z,0.60
2019-01-09T11:55:54.994Z,0.40
2019-01-09T11:58:25.200Z,0.30
2019-01-09T12:00:54.406Z,0.47
2019-01-09T12:03:23.746Z,0.53
2019-01-09T12:05:53.073Z,0.50
2019-01-09T12:08:22.401Z,0.40
2019-01-09T12:10:53.947Z,0.53
2019-01-09T12:13:23.281Z,0.50
2019-01-09T12:15:56.181Z,0.63
2019-01-09T12:18:25.461Z,0.30
2019-01-09T12:20:55.403Z,0.40
2019-01-09T12:23:25.064Z,0.57
2019-01-09T12:25:56.867Z,0.50
2019-01-09T12:28:30.477Z,0.50
2019-01-09T12:31:07.177Z,0.40
2019-01-09T12:33:48.539Z,0.70
2019-01-09T12:36:18.928Z,0.60
2019-01-09T12:38:48.235Z,0.30
2019-01-09T12:41:19.172Z,0.80
2019-01-09T12:43:51.705Z,0.70
2019-01-09T12:46:21.307Z,0.50
2019-01-09T12:48:52.432Z,0.73
2019-01-09T12:51:21.903Z,0.50
2019-01-09T12:53:52.698Z,0.60
2019-01-09T12:56:23.027Z,0.50
2019-01-09T12:58:52.285Z,0.70
2019-01-09T13:01:21.718Z,0.90
2019-01-09T13:03:50.851Z,0.80
2019-01-09T13:06:20.401Z,0.93
2019-01-09T13:08:49.748Z,0.80
2019-01-09T13:11:19.503Z,0.73
2019-01-09T13:13:50.220Z,0.53
2019-01-09T13:16:19.883Z,0.60
2019-01-09T13:19:02.830Z,0.70
2019-01-09T13:21:31.782Z,0.60
2019-01-09T13:24:01.236Z,0.50
2019-01-09T13:26:31.847Z,0.50
2019-01-09T13:29:02.457Z,0.40
2019-01-09T13:31:33.055Z,0.40
2019-01-09T13:34:03.985Z,0.67
2019-01-09T13:36:33.890Z,0.50
2019-01-09T13:39:04.093Z,0.47
2019-01-09T13:41:35.624Z,0.53
2019-01-09T13:44:07.689Z,0.67
2019-01-09T13:46:40.126Z,0.80
2019-01-09T13:49:10.961Z,0.70
2019-01-09T13:51:40.353Z,0.60
2019-01-09T13:54:16.464Z,0.80
2019-01-09T13:56:47.152Z,0.50
2019-01-09T13:59:22.212Z,0.50
2019-01-09T14:01:50.865Z,0.60
2019-01-09T14:04:20.509Z,0.83
2019-01-09T14:06:57.458Z,0.70
2019-01-09T14:09:26.940Z,0.70
2019-01-09T14:11:56.725Z,0.50
2019-01-09T14:14:27.287Z,0.80
2019-01-09T14:17:00.731Z,0.63
2019-01-09T14:19:31.858Z,0.40
2019-01-09T14:22:16.394Z,0.80
2019-01-09T14:24:45.668Z,0.90
2019-01-09T14:27:15.347Z,0.70
2019-01-09T14:29:47.986Z,0.70
2019-01-09T14:32:18.912Z,0.80
2019-01-09T14:34:48.799Z,0.90
2019-01-09T14:37:18.674Z,0.80
2019-01-09T14:39:48.099Z,0.80
2019-01-09T14:42:17.713Z,0.60
2019-01-09T14:44:49.267Z,1.00
2019-01-09T14:47:22.560Z,0.90
2019-01-09T14:49:56.064Z,1.00
2019-01-09T14:52:25.463Z,0.73
2019-01-09T14:54:54.810Z,0.70
2019-01-09T14:57:24.590Z,0.90
2019-01-09T14:59:58.701Z,0.80
2019-01-09T15:02:29.630Z,0.77
2019-01-09T15:05:00.380Z,1.20
2019-01-09T15:07:29.770Z,0.87
2019-01-09T15:09:59.263Z,1.17
2019-01-09T15:12:34.169Z,0.97
2019-01-09T15:15:04.926Z,0.97
2019-01-09T15:17:35.321Z,0.80
2019-01-09T15:20:08.182Z,0.87
2019-01-09T15:22:38.060Z,0.90
2019-01-09T15:25:10.422Z,1.13
2019-01-09T15:27:41.021Z,1.10
2019-01-09T15:30:22.125Z,1.07
2019-01-09T15:32:54.093Z,1.00
2019-01-09T15:35:35.629Z,1.23
2019-01-09T15:38:04.997Z,1.20
2019-01-09T15:40:34.367Z,1.00
2019-01-09T15:43:04.552Z,1.13
2019-01-09T15:45:36.799Z,1.30
2019-01-09T15:48:12.180Z,0.90
2019-01-09T15:50:43.326Z,1.47
2019-01-09T15:53:12.402Z,1.20
2019-01-09T15:55:43.204Z,1.53
2019-01-09T15:58:17.582Z,1.07
2019-01-09T16:00:46.388Z,1.07
2019-01-09T16:03:15.859Z,1.90
2019-01-09T16:05:45.779Z,1.40
2019-01-09T16:08:15.833Z,1.60
2019-01-09T16:10:59.757Z,1.43
2019-01-09T16:13:33.386Z,1.10
2019-01-09T16:16:02.837Z,1.27
2019-01-09T16:18:32.297Z,0.90
2019-01-09T16:21:02.240Z,1.70
2019-01-09T16:23:33.377Z,1.50
2019-01-09T16:26:05.253Z,1.40
2019-01-09T16:28:34.718Z,1.50
2019-01-09T16:31:12.946Z,1.50
2019-01-09T16:33:42.925Z,1.63
2019-01-09T16:36:13.089Z,1.53
2019-01-09T16:38:44.945Z,1.93
2019-01-09T16:41:14.475Z,2.00
2019-01-09T16:43:49.987Z,1.67
2019-01-09T16:46:21.445Z,1.90
2019-01-09T16:48:51.022Z,1.73
2019-01-09T16:51:20.417Z,2.13
2019-01-09T16:53:51.262Z,1.20
2019-01-09T16:56:21.965Z,1.47
2019-01-09T16:58:51.712Z,1.93
2019-01-09T17:01:21.389Z,1.67
2019-01-09T17:03:50.921Z,1.53
2019-01-09T17:06:20.343Z,1.73
2019-01-09T17:09:00.201Z,1.87
2019-01-09T17:11:29.014Z,1.80
2019-01-09T17:13:58.686Z,1.37
2019-01-09T17:16:29.132Z,1.50
2019-01-09T17:18:58.546Z,1.30
2019-01-09T17:21:27.969Z,1.50
2019-01-09T17:23:57.348Z,1.70
2019-01-09T17:26:26.699Z,1.60
2019-01-09T17:28:55.950Z,1.47
2019-01-09T17:31:29.089Z,1.47
2019-01-09T17:33:59.441Z,0.90
2019-01-09T17:36:28.803Z,1.80
2019-01-09T17:38:58.156Z,1.37
2019-01-09T17:41:27.607Z,1.40
2019-01-09T17:44:00.110Z,1.53
2019-01-09T17:46:28.945Z,1.93
2019-01-09T17:49:02.022Z,1.93
2019-01-09T17:51:31.616Z,1.53
2019-01-09T17:54:01.411Z,1.40
2019-01-09T17:56:31.309Z,1.23
2019-01-09T17:59:03.160Z,1.40
2019-01-09T18:01:32.705Z,1.00
2019-01-09T18:04:02.249Z,1.83
2019-01-09T18:06:31.872Z,2.12
2019-01-09T18:09:01.470Z,1.70
2019-01-09T18:11:34.081Z,1.47
2019-01-09T18:14:03.267Z,1.50
2019-01-09T18:16:34.743Z,0.87
2019-01-09T18:19:06.931Z,1.50
2019-01-09T18:21:36.325Z,1.43
2019-01-09T18:24:06.041Z,1.30
2019-01-09T18:26:35.645Z,0.97
2019-01-09T18:29:06.701Z,0.87
2019-01-09T18:31:53.361Z,1.20
2019-01-09T18:34:22.720Z,1.10
2019-01-09T18:36:58.035Z,0.90
2019-01-09T18:39:33.316Z,1.37
2019-01-09T18:42:18.819Z,1.20
2019-01-09T18:44:56.585Z,1.40
2019-01-09T18:47:59.589Z,1.10
2019-01-09T18:51:06.870Z,0.93
2019-01-09T18:53:36.620Z,1.00
2019-01-09T18:56:06.149Z,1.10
2019-01-09T18:58:35.395Z,0.90
2019-01-09T19:01:07.742Z,1.13
2019-01-09T19:03:49.643Z,0.90
2019-01-09T19:06:18.936Z,1.23
2019-01-09T19:08:49.087Z,1.00
2019-01-09T19:11:18.208Z,1.33
2019-01-09T19:13:47.478Z,0.80
2019-01-09T19:16:16.906Z,0.93
2019-01-09T19:18:49.085Z,1.27
2019-01-09T19:21:18.401Z,0.80
2019-01-09T19:23:48.122Z,0.70
2019-01-09T19:26:29.571Z,1.00
2019-01-09T19:29:00.294Z,1.17
2019-01-09T19:31:30.884Z,1.10
2019-01-09T19:34:00.188Z,0.90
2019-01-09T19:36:32.242Z,1.10
2019-01-09T19:39:01.666Z,1.30
2019-01-09T19:41:30.857Z,1.10
2019-01-09T19:44:00.148Z,0.90
2019-01-09T19:46:29.525Z,1.50
2019-01-09T19:49:03.434Z,1.00
2019-01-09T19:51:32.968Z,1.40
2019-01-09T19:54:02.396Z,1.20
2019-01-09T19:56:31.540Z,1.13
2019-01-09T19:59:00.891Z,1.10
2019-01-09T20:01:30.439Z,1.27
2019-01-09T20:04:01.362Z,1.00
2019-01-09T20:06:30.526Z,1.20
2019-01-09T20:09:02.996Z,1.17
2019-01-09T20:11:35.854Z,1.43
2019-01-09T20:14:07.231Z,1.20
2019-01-09T20:16:37.052Z,1.20
2019-01-09T20:19:07.865Z,1.40
2019-01-09T20:21:37.781Z,1.30
2019-01-09T20:24:10.687Z,1.30
2019-01-09T20:26:40.189Z,1.40
2019-01-09T20:29:10.098Z,1.30
2019-01-09T20:31:39.706Z,1.40
2019-01-09T20:34:10.679Z,1.03
2019-01-09T20:36:40.375Z,1.37
2019-01-09T20:39:09.789Z,1.10
2019-01-09T20:41:40.038Z,1.10
2019-01-09T20:44:09.668Z,1.30
2019-01-09T20:46:44.886Z,1.57
2019-01-09T20:49:14.814Z,1.40
2019-01-09T20:51:44.319Z,1.60
2019-01-09T20:54:17.264Z,1.57
2019-01-09T20:56:46.580Z,1.20
2019-01-09T20:59:17.094Z,1.63
2019-01-09T21:01:46.292Z,1.97
2019-01-09T21:04:16.925Z,1.53
2019-01-09T21:06:46.359Z,1.97
2019-01-09T21:09:16.115Z,2.00
2019-01-09T21:11:45.520Z,1.70
2019-01-09T21:14:15.573Z,1.83
2019-01-09T21:16:46.320Z,1.80
2019-01-09T21:19:16.697Z,1.90
2019-01-09T21:21:46.030Z,1.63
2019-01-09T21:24:15.187Z,1.70
2019-01-09T21:26:44.362Z,1.60
2019-01-09T21:29:15.622Z,1.90
2019-01-09T21:31:55.856Z,1.30
2019-01-09T21:34:24.906Z,1.20
2019-01-09T21:37:03.306Z,1.97
2019-01-09T21:39:34.628Z,1.80
2019-01-09T21:42:05.517Z,2.00
2019-01-09T21:44:34.671Z,1.43
2019-01-09T21:47:04.178Z,1.60
2019-01-09T21:49:33.382Z,1.57
2019-01-09T21:52:04.189Z,1.57
2019-01-09T21:54:38.848Z,1.73
2019-01-09T21:57:08.869Z,1.20
2019-01-09T21:59:38.047Z,1.87
2019-01-09T22:02:07.311Z,1.53
2019-01-09T22:04:36.522Z,1.80
2019-01-09T22:07:07.316Z,1.70
2019-01-09T22:09:38.290Z,1.70
2019-01-09T22:12:07.664Z,1.57
2019-01-09T22:14:37.980Z,1.67
2019-01-09T22:17:10.547Z,1.67
2019-01-09T22:19:41.256Z,1.67
2019-01-09T22:22:12.460Z,1.93
2019-01-09T22:24:41.649Z,1.70
2019-01-09T22:27:11.120Z,1.80
2019-01-09T22:29:40.255Z,1.97
2019-01-09T22:32:09.512Z,1.57
2019-01-09T22:34:38.691Z,1.73
2019-01-09T22:37:07.859Z,1.93
2019-01-09T22:39:43.386Z,1.53
2019-01-09T22:42:14.123Z,1.77
2019-01-09T22:44:45.752Z,1.87
2019-01-09T22:47:17.128Z,1.50
2019-01-09T22:49:46.520Z,1.70
2019-01-09T22:52:17.149Z,1.77
2019-01-09T22:54:47.144Z,1.63
2019-01-09T22:57:16.382Z,1.90
2019-01-09T22:59:46.033Z,1.53
2019-01-09T23:02:23.540Z,1.87
2019-01-09T23:04:53.290Z,1.23
2019-01-09T23:07:22.545Z,1.43
2019-01-09T23:09:51.671Z,1.57
2019-01-09T23:12:21.448Z,1.13
2019-01-09T23:14:51.327Z,1.50
2019-01-09T23:17:20.749Z,1.53
2019-01-09T23:19:50.169Z,1.00
2019-01-09T23:22:19.598Z,1.27
2019-01-09T23:24:48.917Z,1.20
2019-01-09T23:27:18.122Z,1.40
2019-01-09T23:29:47.550Z,1.30
2019-01-09T23:32:17.002Z,1.53
2019-01-09T23:34:46.285Z,1.70
2019-01-09T23:37:15.468Z,1.30
2019-01-09T23:39:44.698Z,1.60
2019-01-09T23:42:14.604Z,1.40
2019-01-09T23:44:43.782Z,1.20
2019-01-09T23:47:15.362Z,1.70
2019-01-09T23:49:45.653Z,1.50
2019-01-09T23:52:15.145Z,1.40
2019-01-09T23:54:44.235Z,1.10
2019-01-09T23:57:13.426Z,1.40
2019-01-09T23:59:46.009Z,1.20
